createdAt,value
2022-10-28T00:04:36.879Z,27.40
2022-10-28T00:09:39.414Z,25.07
2022-10-28T00:14:42.106Z,23.93
2022-10-28T00:19:44.596Z,26.17
2022-10-28T00:24:47.053Z,22.33
2022-10-28T00:29:49.477Z,28.20
2022-10-28T00:34:51.864Z,19.87
2022-10-28T00:39:54.362Z,25.20
2022-10-28T00:45:02.027Z,21.23
2022-10-28T00:50:28.997Z,20.70
2022-10-28T00:55:33.065Z,24.57
2022-10-28T01:00:35.617Z,28.13
2022-10-28T01:05:42.305Z,24.83
2022-10-28T01:11:09.923Z,19.40
2022-10-28T01:16:27.755Z,30.53
2022-10-28T01:22:02.179Z,31.40
2022-10-28T01:27:45.981Z,31.47
2022-10-28T01:33:04.129Z,27.60
2022-10-28T01:38:35.113Z,30.27
2022-10-28T01:43:55.028Z,38.60
2022-10-28T01:49:02.505Z,37.13
2022-10-28T01:54:08.717Z,22.63
2022-10-28T01:59:15.123Z,28.07
2022-10-28T02:04:17.852Z,26.33
2022-10-28T02:09:24.304Z,34.77
2022-10-28T02:14:32.871Z,25.40
2022-10-28T02:20:04.561Z,37.10
2022-10-28T02:25:10.856Z,33.77
2022-10-28T02:30:25.469Z,36.23
2022-10-28T02:35:38.859Z,32.40
2022-10-28T02:40:46.227Z,35.20
2022-10-28T02:45:53.074Z,29.37
2022-10-28T02:51:00.695Z,34.33
2022-10-28T02:56:05.875Z,27.07
2022-10-28T03:01:08.444Z,32.87
2022-10-28T03:06:10.959Z,30.10
2022-10-28T03:11:13.489Z,36.27
2022-10-28T03:16:15.940Z,36.57
2022-10-28T03:21:18.436Z,35.20
2022-10-28T03:26:20.764Z,39.00
2022-10-28T03:31:23.216Z,30.93
2022-10-28T03:36:25.702Z,30.17
2022-10-28T03:41:28.192Z,31.20
2022-10-28T03:46:32.348Z,37.30
2022-10-28T03:51:37.676Z,37.07
2022-10-28T03:56:40.662Z,35.83
2022-10-28T04:01:43.175Z,32.83
2022-10-28T04:06:45.725Z,15.03
2022-10-28T04:11:49.692Z,30.20
2022-10-28T04:16:52.083Z,31.37
2022-10-28T04:21:54.790Z,31.13
2022-10-28T04:26:57.372Z,16.70
2022-10-28T04:31:59.731Z,32.17
2022-10-28T04:37:02.100Z,35.53
2022-10-28T04:42:04.538Z,26.90
2022-10-28T04:47:06.860Z,25.57
2022-10-28T04:52:12.020Z,19.53
2022-10-28T04:57:17.372Z,26.90
2022-10-28T05:02:21.976Z,31.60
2022-10-28T05:07:24.569Z,38.37
2022-10-28T05:12:27.002Z,30.30
2022-10-28T05:17:29.552Z,32.00
2022-10-28T05:22:32.076Z,30.97
2022-10-28T05:27:34.592Z,27.60
2022-10-28T05:32:37.684Z,22.37
2022-10-28T05:37:44.053Z,34.33
2022-10-28T05:42:46.871Z,23.10
2022-10-28T05:47:49.316Z,10.50
2022-10-28T05:52:54.099Z,30.17
2022-10-28T05:57:57.504Z,34.13
2022-10-28T06:03:10.539Z,27.47
2022-10-28T06:08:13.970Z,27.63
2022-10-28T06:13:15.270Z,31.63
2022-10-28T06:18:20.134Z,28.67
2022-10-28T06:23:24.641Z,31.17
2022-10-28T06:28:27.347Z,22.93
2022-10-28T06:33:31.864Z,34.47
2022-10-28T06:38:35.110Z,39.77
2022-10-28T06:43:38.254Z,30.07
2022-10-28T06:48:43.046Z,28.53
2022-10-28T06:53:52.764Z,24.67
2022-10-28T06:58:56.207Z,30.53
2022-10-28T07:03:59.406Z,32.13
2022-10-28T07:09:02.581Z,30.73
2022-10-28T07:14:05.356Z,22.90
2022-10-28T07:19:08.326Z,34.07
2022-10-28T07:24:10.913Z,23.80
2022-10-28T07:29:13.499Z,33.70
2022-10-28T07:34:16.101Z,24.60
2022-10-28T07:39:19.207Z,24.40
2022-10-28T07:44:21.777Z,23.07
2022-10-28T07:49:27.669Z,32.53
2022-10-28T07:54:34.005Z,25.40
2022-10-28T07:59:38.306Z,24.20
2022-10-28T08:04:41.585Z,36.27
2022-10-28T08:09:48.057Z,32.10
2022-10-28T08:15:23.002Z,28.50
2022-10-28T08:20:32.319Z,34.83
2022-10-28T08:25:36.069Z,29.60
2022-10-28T08:30:56.614Z,30.13
2022-10-28T08:36:15.838Z,26.50
2022-10-28T08:41:44.338Z,23.43
2022-10-28T08:47:01.558Z,15.37
2022-10-28T08:52:36.372Z,24.13
2022-10-28T08:57:52.321Z,19.30
2022-10-28T09:03:13.727Z,22.83
2022-10-28T09:08:22.669Z,24.70
2022-10-28T09:13:25.688Z,23.67
2022-10-28T09:18:37.230Z,28.23
2022-10-28T09:24:13.318Z,24.13
2022-10-28T09:29:15.697Z,20.73
2022-10-28T09:34:29.428Z,20.33
2022-10-28T09:39:43.940Z,15.80
2022-10-28T09:44:54.647Z,13.63
2022-10-28T09:50:02.150Z,17.37
2022-10-28T09:55:29.392Z,15.40
2022-10-28T10:00:32.476Z,17.77
2022-10-28T10:05:40.731Z,19.83
2022-10-28T10:10:57.089Z,18.10
2022-10-28T10:16:04.900Z,14.07
2022-10-28T10:21:07.343Z,20.53
2022-10-28T10:26:13.549Z,15.93
2022-10-28T10:31:29.812Z,13.07
2022-10-28T10:36:33.977Z,17.57
2022-10-28T10:41:44.262Z,12.47
2022-10-28T10:47:06.516Z,11.40
2022-10-28T10:52:21.531Z,13.87
2022-10-28T10:57:25.691Z,14.77
2022-10-28T11:02:41.744Z,12.30
2022-10-28T11:07:48.320Z,15.27
2022-10-28T11:12:56.799Z,17.33
2022-10-28T11:17:59.528Z,13.00
2022-10-28T11:23:14.035Z,14.40
2022-10-28T11:28:38.393Z,11.03
2022-10-28T11:34:05.048Z,14.90
2022-10-28T11:39:19.150Z,19.37
2022-10-28T11:44:51.093Z,15.07
2022-10-28T11:50:13.408Z,10.50
2022-10-28T11:55:33.881Z,19.30
2022-10-28T12:01:01.276Z,10.33
2022-10-28T12:06:18.133Z,14.67
2022-10-28T12:11:49.804Z,16.90
2022-10-28T12:17:30.571Z,17.10
2022-10-28T12:22:56.552Z,12.13
2022-10-28T12:28:03.859Z,13.60
2022-10-28T12:33:41.028Z,20.90
2022-10-28T12:38:49.627Z,11.97
2022-10-28T12:44:03.009Z,18.90
2022-10-28T12:49:13.257Z,15.47
2022-10-28T12:54:30.785Z,18.87
2022-10-28T12:59:38.705Z,14.63
2022-10-28T13:04:41.607Z,18.90
2022-10-28T13:10:05.295Z,14.20
2022-10-28T13:15:22.856Z,22.97
2022-10-28T13:20:39.114Z,13.67
2022-10-28T13:25:47.312Z,16.30
2022-10-28T13:30:59.273Z,16.70
2022-10-28T13:36:53.452Z,13.53
2022-10-28T13:42:14.969Z,17.47
2022-10-28T13:47:17.481Z,19.80
2022-10-28T13:52:21.469Z,17.63
2022-10-28T13:57:48.539Z,13.60
2022-10-28T14:02:55.898Z,25.47
2022-10-28T14:08:05.068Z,17.57
2022-10-28T14:24:07.633Z,16.47
2022-10-28T14:29:29.986Z,21.43
2022-10-28T14:34:43.126Z,14.53
2022-10-28T14:40:17.825Z,26.27
2022-10-28T14:45:40.843Z,24.00
2022-10-28T14:50:48.967Z,27.50
2022-10-28T14:56:16.759Z,33.47
2022-10-28T15:01:28.006Z,24.13
2022-10-28T15:06:41.724Z,32.57
2022-10-28T15:11:48.015Z,20.93
2022-10-28T15:16:52.045Z,22.87
2022-10-28T15:27:32.450Z,27.83
2022-10-28T15:32:35.832Z,20.17
2022-10-28T15:37:39.653Z,35.57
2022-10-28T15:42:51.685Z,26.27
2022-10-28T15:47:55.978Z,15.03
2022-10-28T15:53:08.428Z,14.07
2022-10-28T15:58:17.995Z,12.33
2022-10-28T16:03:45.696Z,18.13
2022-10-28T16:08:48.826Z,15.77
2022-10-28T16:13:51.302Z,28.67
2022-10-28T16:19:09.731Z,20.60
2022-10-28T16:24:13.381Z,21.77
2022-10-28T16:29:15.938Z,24.50
2022-10-28T16:34:18.424Z,21.90
2022-10-28T16:39:20.952Z,25.37
2022-10-28T16:44:27.108Z,33.17
2022-10-28T16:49:29.482Z,25.30
2022-10-28T16:54:32.029Z,44.63
2022-10-28T16:59:34.531Z,32.37
2022-10-28T17:04:37.060Z,25.53
2022-10-28T17:09:39.457Z,25.93
2022-10-28T17:14:42.170Z,24.13
2022-10-28T17:19:45.785Z,20.83
2022-10-28T17:24:48.476Z,25.57
2022-10-28T17:29:51.010Z,17.47
2022-10-28T17:34:53.534Z,21.03
2022-10-28T17:39:57.231Z,19.07
2022-10-28T17:44:59.849Z,26.70
2022-10-28T17:50:02.470Z,20.27
2022-10-28T17:55:05.370Z,23.67
2022-10-28T18:00:08.654Z,33.00
2022-10-28T18:05:14.121Z,23.00
2022-10-28T18:10:16.863Z,24.70
2022-10-28T18:15:19.302Z,22.83
2022-10-28T18:20:21.697Z,20.50
2022-10-28T18:25:24.363Z,21.37
2022-10-28T18:30:26.981Z,20.40
2022-10-28T18:35:29.781Z,23.63
2022-10-28T18:40:32.319Z,19.83
2022-10-28T18:45:34.774Z,20.37
2022-10-28T18:50:37.391Z,24.63
2022-10-28T18:55:39.925Z,16.53
2022-10-28T19:00:42.446Z,18.73
2022-10-28T19:05:45.033Z,18.77
2022-10-28T19:10:48.750Z,16.90
2022-10-28T19:15:51.459Z,36.97
2022-10-28T19:20:57.218Z,40.67
2022-10-28T19:26:00.473Z,42.53
2022-10-28T19:31:05.742Z,40.83
2022-10-28T19:36:14.409Z,41.67
2022-10-28T19:41:19.250Z,36.83
2022-10-28T19:46:22.263Z,46.60
2022-10-28T19:51:27.674Z,18.50
2022-10-28T19:56:33.745Z,22.23
2022-10-28T20:01:38.763Z,18.80
2022-10-28T20:06:41.648Z,28.73
2022-10-28T20:11:44.740Z,21.00
2022-10-28T20:16:48.875Z,25.57
2022-10-28T20:21:51.419Z,25.17
2022-10-28T20:26:53.913Z,18.60
2022-10-28T20:31:56.296Z,15.10
2022-10-28T20:36:58.916Z,17.00
2022-10-28T20:42:01.388Z,17.47
2022-10-28T20:47:03.847Z,21.40
2022-10-28T20:52:06.223Z,22.57
2022-10-28T20:57:08.616Z,26.27
2022-10-28T21:02:11.173Z,22.50
2022-10-28T21:07:13.796Z,27.83
2022-10-28T21:12:19.055Z,28.13
2022-10-28T21:17:27.733Z,27.70
2022-10-28T21:22:30.531Z,32.10
2022-10-28T21:27:34.326Z,33.43
2022-10-28T21:32:37.349Z,30.97
2022-10-28T21:37:39.853Z,29.47
2022-10-28T21:42:42.596Z,20.50
2022-10-28T21:47:45.121Z,17.03
2022-10-28T21:52:47.671Z,32.23
2022-10-28T21:57:50.219Z,14.43
2022-10-28T22:02:52.929Z,19.20
2022-10-28T22:07:55.874Z,24.97
2022-10-28T22:12:58.686Z,16.17
2022-10-28T22:18:01.182Z,16.07
2022-10-28T22:23:03.673Z,18.53
2022-10-28T22:28:06.105Z,13.07
2022-10-28T22:33:08.530Z,17.93
2022-10-28T22:38:10.936Z,26.73
2022-10-28T22:43:13.854Z,18.13
2022-10-28T22:48:16.316Z,17.30
2022-10-28T22:53:19.563Z,18.80
2022-10-28T22:58:23.761Z,14.70
2022-10-28T23:03:26.185Z,18.77
2022-10-28T23:08:28.732Z,14.60
2022-10-28T23:13:31.553Z,20.57
2022-10-28T23:18:34.856Z,17.00
2022-10-28T23:23:37.339Z,19.33
2022-10-28T23:28:40.883Z,20.17
2022-10-28T23:33:44.262Z,16.57
2022-10-28T23:38:46.727Z,17.43
2022-10-28T23:43:49.697Z,16.57
2022-10-28T23:48:52.202Z,13.40
2022-10-28T23:53:54.872Z,16.67
2022-10-28T23:58:57.651Z,17.63
